Time;durP1;ratioP1;P1;durP2;ratioP2;P2;SDS_P1;SDS_P2;PMS_P1;PMS_P2;Temp;Humidity;BMP_temperature;BMP_pressure;BME280_temperature;BME280_humidity;BME280_pressure;Samples;Min_cycle;Max_cycle;Signal;HPM_P1;HPM_P2
2023/12/13 00:01:51;;;;;;;3.30;1.60;;;9.50;84.10;;;;;;5073001;28;20399;-75
2023/12/13 00:04:16;;;;;;;4.25;1.60;;;9.50;84.30;;;;;;5073803;28;20411;-75
2023/12/13 00:06:42;;;;;;;4.33;1.50;;;9.30;87.40;;;;;;5073509;28;20431;-75
2023/12/13 00:09:08;;;;;;;4.83;1.50;;;9.30;87.00;;;;;;5074154;28;20474;-77
2023/12/13 00:11:34;;;;;;;7.25;1.27;;;9.20;87.50;;;;;;5080030;28;20447;-74
2023/12/13 00:13:59;;;;;;;3.42;1.30;;;9.20;86.50;;;;;;5085852;28;20476;-74
2023/12/13 00:16:25;;;;;;;7.32;1.90;;;9.10;90.30;;;;;;5083747;28;20394;-75
2023/12/13 00:18:51;;;;;;;3.75;1.73;;;9.00;88.70;;;;;;5079481;28;20460;-74
2023/12/13 00:21:17;;;;;;;4.72;1.88;;;8.90;91.20;;;;;;5072334;28;20380;-75
2023/12/13 00:23:43;;;;;;;5.07;1.97;;;8.70;96.10;;;;;;5071482;28;20469;-76
2023/12/13 00:26:17;;;;;;;3.10;2.10;;;8.60;98.10;;;;;;5071796;28;20423;-75
2023/12/13 00:28:43;;;;;;;8.80;2.10;;;8.50;99.90;;;;;;5071560;28;20395;-76
2023/12/13 00:31:10;;;;;;;5.78;2.30;;;8.40;99.90;;;;;;5071183;28;20380;-74
2023/12/13 00:33:36;;;;;;;3.20;2.10;;;8.50;99.90;;;;;;5071354;28;20391;-74
2023/12/13 00:36:02;;;;;;;2.47;2.10;;;8.40;99.90;;;;;;5071294;28;20379;-75
2023/12/13 00:38:27;;;;;;;3.88;1.60;;;8.40;99.90;;;;;;5069889;28;20590;-76
2023/12/13 00:40:53;;;;;;;6.60;2.00;;;8.40;99.90;;;;;;5071052;28;20371;-74
2023/12/13 00:43:18;;;;;;;5.70;2.10;;;8.40;99.90;;;;;;5071097;28;20399;-76
2023/12/13 00:45:44;;;;;;;5.20;1.80;;;8.40;99.90;;;;;;5071060;28;20414;-76
2023/12/13 00:48:09;;;;;;;4.30;1.88;;;8.40;99.90;;;;;;5072229;28;20387;-75
2023/12/13 00:50:35;;;;;;;4.30;1.92;;;8.40;99.90;;;;;;5072917;28;20731;-74
2023/12/13 00:53:01;;;;;;;3.43;1.80;;;8.40;99.90;;;;;;5071074;28;20521;-75
2023/12/13 00:55:27;;;;;;;3.47;2.00;;;8.40;99.90;;;;;;5069908;28;20801;-75
2023/12/13 00:57:53;;;;;;;4.90;2.30;;;8.50;99.90;;;;;;5073719;28;20705;-77
2023/12/13 01:00:19;;;;;;;6.77;2.10;;;8.60;99.90;;;;;;5071491;28;20522;-77
2023/12/13 01:02:44;;;;;;;5.57;2.40;;;8.70;99.90;;;;;;5071906;28;20388;-76
2023/12/13 01:05:10;;;;;;;6.40;2.53;;;8.70;99.90;;;;;;5069846;28;20423;-74
2023/12/13 01:07:35;;;;;;;6.70;2.70;;;8.70;99.90;;;;;;5071232;28;20380;-74
2023/12/13 01:10:01;;;;;;;4.90;2.53;;;8.60;99.90;;;;;;5070777;28;20387;-74
2023/12/13 01:12:27;;;;;;;4.20;2.73;;;8.70;99.90;;;;;;5070456;28;20388;-76
2023/12/13 01:14:53;;;;;;;5.90;2.80;;;8.80;98.80;;;;;;5070616;28;20455;-75
2023/12/13 01:17:18;;;;;;;8.43;2.80;;;8.70;99.90;;;;;;5070759;28;20383;-76
2023/12/13 01:19:44;;;;;;;6.60;2.70;;;8.70;99.90;;;;;;5068960;28;20870;-75
2023/12/13 01:22:09;;;;;;;8.17;3.27;;;8.70;99.90;;;;;;5070269;28;20399;-76
2023/12/13 01:24:36;;;;;;;5.00;2.50;;;8.80;99.70;;;;;;5070299;28;20474;-77
2023/12/13 01:27:01;;;;;;;9.35;2.70;;;8.80;99.90;;;;;;5070627;28;20382;-74
2023/12/13 01:29:27;;;;;;;4.38;2.70;;;8.80;96.90;;;;;;5070643;28;20463;-75
2023/12/13 01:31:53;;;;;;;4.32;2.17;;;8.90;97.40;;;;;;5069277;28;20802;-76
2023/12/13 01:34:18;;;;;;;3.45;2.42;;;8.80;98.90;;;;;;5070396;28;20471;-76
2023/12/13 01:36:44;;;;;;;5.32;2.30;;;8.90;95.60;;;;;;5070683;28;20411;-75
2023/12/13 01:39:12;;;;;;;6.22;2.63;;;8.90;95.80;;;;;;5070800;28;20882;-74
2023/12/13 01:41:38;;;;;;;5.80;2.75;;;9.00;93.70;;;;;;5070907;28;20471;-75
2023/12/13 01:44:04;;;;;;;6.37;2.63;;;8.90;95.20;;;;;;5070427;28;21031;-78
2023/12/13 01:46:31;;;;;;;5.63;2.57;;;8.90;96.00;;;;;;5070964;28;20904;-74
2023/12/13 01:48:57;;;;;;;6.10;2.38;;;8.80;95.50;;;;;;5070247;28;20420;-74
2023/12/13 01:51:22;;;;;;;7.63;2.50;;;8.70;98.70;;;;;;5070646;28;20426;-75
2023/12/13 01:53:49;;;;;;;4.20;2.20;;;8.80;99.00;;;;;;5071001;28;20878;-76
2023/12/13 01:56:14;;;;;;;9.80;2.30;;;8.70;99.90;;;;;;5073868;28;20383;-74
2023/12/13 01:58:40;;;;;;;8.85;2.25;;;8.60;99.90;;;;;;5081755;28;20973;-76
2023/12/13 02:01:07;;;;;;;7.18;2.30;;;8.70;99.90;;;;;;5077601;28;20909;-76
2023/12/13 02:03:35;;;;;;;9.35;3.10;;;8.80;99.80;;;;;;5085560;28;20392;-75
2023/12/13 02:06:01;;;;;;;6.20;2.40;;;8.80;99.90;;;;;;5088206;28;20418;-75
2023/12/13 02:08:27;;;;;;;5.22;2.30;;;8.70;99.90;;;;;;5083183;28;20742;-75
2023/12/13 02:10:53;;;;;;;8.40;2.90;;;8.70;99.90;;;;;;5076597;28;20384;-75
2023/12/13 02:13:19;;;;;;;9.60;2.90;;;8.70;99.90;;;;;;5075785;28;20802;-75
2023/12/13 02:15:45;;;;;;;9.77;2.70;;;8.80;99.90;;;;;;5075210;28;20491;-75
2023/12/13 02:18:11;;;;;;;6.30;2.78;;;8.80;99.90;;;;;;5074761;28;20505;-74
2023/12/13 02:20:37;;;;;;;7.85;2.80;;;8.80;99.90;;;;;;5074759;28;20380;-74
2023/12/13 02:23:02;;;;;;;7.63;2.83;;;8.80;99.90;;;;;;5086419;22;20427;-72
2023/12/13 02:25:51;;;;;;;6.23;2.03;;;8.80;99.90;;;;;;5073165;28;20415;-72
2023/12/13 02:28:17;;;;;;;6.93;2.50;;;8.90;99.60;;;;;;5073302;28;20418;-73
2023/12/13 02:30:46;;;;;;;5.78;2.10;;;8.90;98.10;;;;;;5073261;28;20441;-72
2023/12/13 02:33:11;;;;;;;5.50;2.20;;;8.90;96.40;;;;;;5073258;28;20730;-72
2023/12/13 02:35:37;;;;;;;6.70;2.20;;;9.00;96.10;;;;;;5055077;28;20460;-72
2023/12/13 02:38:02;;;;;;;6.53;1.80;;;9.00;97.40;;;;;;5073129;28;20394;-72
2023/12/13 02:40:28;;;;;;;3.80;2.00;;;9.00;96.50;;;;;;5073424;28;20377;-72
2023/12/13 02:42:54;;;;;;;5.10;2.30;;;9.00;97.00;;;;;;5073379;28;20749;-72
2023/12/13 02:45:20;;;;;;;4.57;1.90;;;9.00;96.00;;;;;;5074101;28;20453;-72
2023/12/13 02:47:46;;;;;;;5.88;1.70;;;9.00;97.00;;;;;;5076521;28;20384;-73
2023/12/13 02:50:12;;;;;;;6.03;1.85;;;9.00;95.70;;;;;;5076140;28;20856;-72
2023/12/13 02:52:39;;;;;;;7.28;2.05;;;9.10;95.30;;;;;;5074426;28;20392;-73
2023/12/13 02:55:06;;;;;;;4.90;1.83;;;9.00;96.60;;;;;;5073139;28;20467;-72
2023/12/13 02:57:31;;;;;;;8.05;2.22;;;8.90;98.90;;;;;;5072869;28;20403;-73
2023/12/13 02:59:57;;;;;;;6.68;1.70;;;8.80;99.50;;;;;;5072962;28;20422;-72
2023/12/13 03:02:23;;;;;;;10.75;2.38;;;8.90;98.50;;;;;;5073066;28;20375;-73
2023/12/13 03:04:48;;;;;;;4.95;2.00;;;9.00;97.00;;;;;;5072826;28;20406;-73
2023/12/13 03:07:14;;;;;;;6.83;2.00;;;8.90;99.20;;;;;;5071709;28;20391;-72
2023/12/13 03:09:39;;;;;;;7.37;2.33;;;9.00;99.00;;;;;;5072483;28;20384;-72
2023/12/13 03:12:06;;;;;;;10.20;2.30;;;8.90;97.70;;;;;;5072342;28;20738;-73
2023/12/13 03:14:32;;;;;;;9.40;2.05;;;8.90;98.20;;;;;;5072365;28;20388;-73
2023/12/13 03:16:58;;;;;;;7.87;2.47;;;8.90;98.70;;;;;;5054814;28;20421;-73
2023/12/13 03:19:23;;;;;;;7.97;2.40;;;8.80;99.90;;;;;;5072399;28;20473;-72
2023/12/13 03:21:49;;;;;;;7.50;2.17;;;8.90;99.60;;;;;;5072313;28;20873;-72
2023/12/13 03:24:14;;;;;;;5.50;1.90;;;8.90;99.90;;;;;;5072102;28;20382;-72
2023/12/13 03:26:40;;;;;;;6.13;1.90;;;9.00;98.50;;;;;;5072358;28;20833;-72
2023/12/13 03:29:05;;;;;;;6.93;1.90;;;8.90;99.90;;;;;;5072098;28;20391;-72
2023/12/13 03:31:31;;;;;;;10.15;2.22;;;8.90;99.90;;;;;;5054099;28;20458;-72
2023/12/13 03:33:56;;;;;;;6.33;2.33;;;9.00;99.50;;;;;;5071897;28;20387;-73
2023/12/13 03:36:22;;;;;;;9.13;2.00;;;9.00;98.50;;;;;;5072183;28;20509;-72
2023/12/13 03:38:48;;;;;;;13.60;2.40;;;9.00;97.20;;;;;;5054089;28;20403;-73
2023/12/13 03:41:13;;;;;;;6.93;2.40;;;9.00;98.40;;;;;;5071864;28;20382;-73
2023/12/13 03:43:39;;;;;;;8.17;2.17;;;9.10;96.90;;;;;;5071737;28;20387;-72
2023/12/13 03:46:05;;;;;;;7.88;2.40;;;9.20;95.30;;;;;;5071778;28;20408;-73
2023/12/13 03:48:31;;;;;;;9.07;2.10;;;9.20;95.60;;;;;;5071893;28;20919;-73
2023/12/13 03:50:57;;;;;;;8.80;2.80;;;9.20;97.10;;;;;;5071517;28;20387;-73
2023/12/13 03:53:22;;;;;;;7.20;2.10;;;9.10;99.00;;;;;;5071899;28;20407;-73
2023/12/13 03:55:48;;;;;;;6.72;2.10;;;9.20;97.50;;;;;;5053712;28;20407;-74
2023/12/13 03:58:13;;;;;;;6.47;2.50;;;9.20;98.10;;;;;;5071710;28;20467;-74
2023/12/13 04:00:39;;;;;;;6.95;2.55;;;9.10;99.70;;;;;;5078207;28;20388;-73
2023/12/13 04:03:04;;;;;;;9.57;2.30;;;9.00;99.90;;;;;;5077873;28;20456;-73
2023/12/13 04:05:30;;;;;;;10.40;2.40;;;9.00;99.90;;;;;;5071984;28;20403;-73
2023/12/13 04:07:55;;;;;;;8.73;2.70;;;9.00;99.90;;;;;;5073091;28;20400;-74
2023/12/13 04:10:21;;;;;;;7.10;2.10;;;9.00;99.90;;;;;;5071395;28;20784;-74
2023/12/13 04:12:47;;;;;;;9.48;3.10;;;9.10;99.90;;;;;;5072846;28;21008;-74
2023/12/13 04:15:12;;;;;;;8.73;2.90;;;9.00;99.90;;;;;;5073143;28;20430;-74
2023/12/13 04:17:38;;;;;;;8.23;2.60;;;9.10;99.90;;;;;;5072581;28;20458;-73
2023/12/13 04:20:04;;;;;;;10.47;2.63;;;9.00;99.90;;;;;;5072065;28;20723;-74
2023/12/13 04:22:29;;;;;;;7.22;3.30;;;9.00;99.90;;;;;;5072075;28;20415;-73
2023/12/13 04:24:55;;;;;;;15.05;3.15;;;8.90;99.90;;;;;;5070877;28;20409;-73
2023/12/13 04:27:21;;;;;;;11.25;3.20;;;8.90;99.90;;;;;;5071394;28;20400;-74
2023/12/13 04:29:46;;;;;;;12.00;3.60;;;8.90;99.90;;;;;;5075598;28;20753;-73
2023/12/13 04:32:12;;;;;;;13.35;3.50;;;9.00;99.90;;;;;;5071728;28;20391;-74
2023/12/13 04:34:37;;;;;;;9.05;2.75;;;9.00;99.90;;;;;;5050740;28;20387;-75
2023/12/13 04:37:03;;;;;;;9.90;3.33;;;8.90;99.90;;;;;;5036504;28;20489;-74
2023/12/13 04:39:29;;;;;;;12.32;3.40;;;9.00;99.90;;;;;;5053186;28;20394;-74
2023/12/13 04:41:54;;;;;;;10.90;3.38;;;9.00;99.90;;;;;;5070091;28;20395;-74
2023/12/13 04:44:20;;;;;;;14.50;3.70;;;9.10;99.90;;;;;;5069331;28;20406;-74
2023/12/13 04:46:45;;;;;;;13.57;4.00;;;9.10;99.90;;;;;;5067692;28;20818;-76
2023/12/13 04:49:11;;;;;;;12.23;3.70;;;9.00;99.90;;;;;;5051068;28;20760;-75
2023/12/13 04:51:36;;;;;;;12.70;3.73;;;9.10;99.90;;;;;;5052162;28;20748;-75
2023/12/13 04:54:02;;;;;;;12.82;3.35;;;9.10;99.90;;;;;;5033771;28;20875;-76
2023/12/13 04:56:27;;;;;;;12.40;3.60;;;9.20;99.90;;;;;;5051087;28;20421;-72
2023/12/13 04:58:53;;;;;;;14.00;4.05;;;9.10;99.90;;;;;;5065512;28;20951;-73
2023/12/13 05:01:19;;;;;;;10.68;3.63;;;9.10;99.90;;;;;;5070222;28;20788;-73
2023/12/13 05:03:45;;;;;;;10.88;3.30;;;9.00;99.90;;;;;;5044786;28;20390;-74
2023/12/13 05:06:10;;;;;;;14.70;4.30;;;9.10;99.90;;;;;;5050812;28;20456;-75
2023/12/13 05:08:36;;;;;;;18.77;3.70;;;9.10;99.90;;;;;;5050484;28;20439;-73
2023/12/13 05:11:01;;;;;;;15.55;3.50;;;9.00;99.90;;;;;;5050518;28;20927;-73
2023/12/13 05:13:27;;;;;;;15.00;3.70;;;9.10;99.90;;;;;;5050600;28;20952;-73
2023/12/13 05:15:53;;;;;;;9.87;3.70;;;9.10;99.90;;;;;;5051064;28;20531;-73
2023/12/13 05:18:18;;;;;;;14.87;3.47;;;9.10;99.90;;;;;;5050416;28;20385;-73
2023/12/13 05:20:45;;;;;;;16.27;4.13;;;9.10;99.90;;;;;;5050877;28;20435;-73
2023/12/13 05:23:11;;;;;;;17.13;4.10;;;9.10;99.90;;;;;;5052007;28;20401;-73
2023/12/13 05:25:38;;;;;;;18.08;4.22;;;9.10;99.90;;;;;;5050184;28;20455;-74
2023/12/13 05:28:04;;;;;;;11.05;3.80;;;9.10;99.90;;;;;;5050052;28;20447;-74
2023/12/13 05:30:29;;;;;;;13.07;4.10;;;9.20;99.90;;;;;;5049834;28;20381;-73
2023/12/13 05:32:56;;;;;;;16.27;4.73;;;9.20;99.90;;;;;;5050163;28;20381;-74
2023/12/13 05:35:21;;;;;;;20.23;5.35;;;9.10;99.90;;;;;;5032381;28;20756;-74
2023/12/13 05:37:47;;;;;;;19.05;4.55;;;9.20;99.90;;;;;;5050255;28;20385;-74
2023/12/13 05:40:13;;;;;;;12.93;4.60;;;9.10;99.90;;;;;;5050525;28;20439;-74
2023/12/13 05:42:40;;;;;;;15.50;3.90;;;9.10;99.90;;;;;;5049980;28;20397;-73
2023/12/13 05:45:06;;;;;;;12.85;4.20;;;9.10;99.90;;;;;;5050330;28;20953;-74
2023/12/13 05:47:32;;;;;;;19.77;5.30;;;9.10;99.90;;;;;;5050522;28;20385;-74
2023/12/13 05:49:57;;;;;;;17.30;4.97;;;9.00;99.90;;;;;;5049721;28;20382;-73
2023/12/13 05:52:23;;;;;;;12.88;4.05;;;9.20;99.90;;;;;;5049708;28;20463;-74
2023/12/13 05:54:49;;;;;;;14.07;4.30;;;9.30;99.90;;;;;;5050011;28;20382;-74
2023/12/13 05:57:15;;;;;;;17.75;4.13;;;9.30;99.90;;;;;;5032137;28;20385;-74
2023/12/13 05:59:40;;;;;;;17.17;3.67;;;9.30;99.90;;;;;;5050060;28;20385;-73
2023/12/13 06:02:06;;;;;;;13.50;3.88;;;9.20;99.90;;;;;;5049798;28;20446;-72
2023/12/13 06:04:31;;;;;;;13.77;3.70;;;9.30;99.90;;;;;;5049802;28;20462;-75
2023/12/13 06:06:57;;;;;;;14.27;3.80;;;9.30;99.90;;;;;;5050504;28;20587;-75
2023/12/13 06:09:23;;;;;;;14.68;3.45;;;9.30;99.90;;;;;;5050033;28;20381;-75
2023/12/13 06:11:48;;;;;;;10.20;3.63;;;9.10;99.90;;;;;;5031867;28;20496;-75
2023/12/13 06:14:14;;;;;;;16.60;4.28;;;9.20;99.90;;;;;;5049707;28;20465;-74
2023/12/13 06:16:39;;;;;;;11.35;4.25;;;9.10;99.90;;;;;;5032548;28;20452;-75
2023/12/13 06:19:06;;;;;;;13.18;4.00;;;9.20;99.90;;;;;;5051457;28;20456;-75
2023/12/13 06:21:33;;;;;;;13.07;4.47;;;9.20;99.90;;;;;;5050227;28;20388;-73
2023/12/13 06:23:59;;;;;;;12.33;4.40;;;9.10;99.90;;;;;;5049751;28;20814;-74
2023/12/13 06:26:24;;;;;;;14.65;5.00;;;8.90;99.90;;;;;;5049725;28;20458;-75
2023/12/13 06:28:50;;;;;;;17.23;5.93;;;8.90;99.90;;;;;;5049860;28;20381;-74
2023/12/13 06:31:15;;;;;;;13.80;6.05;;;8.80;99.90;;;;;;5049915;28;20865;-73
2023/12/13 06:33:41;;;;;;;19.90;6.53;;;8.80;99.90;;;;;;5050273;28;20390;-74
2023/12/13 06:36:07;;;;;;;16.57;6.40;;;8.70;99.90;;;;;;5049733;28;20385;-74
2023/12/13 06:38:33;;;;;;;16.27;6.57;;;8.80;99.90;;;;;;5049419;28;20398;-74
2023/12/13 06:40:58;;;;;;;15.77;6.57;;;8.70;99.90;;;;;;5049568;28;20443;-74
2023/12/13 06:43:24;;;;;;;17.00;6.90;;;8.70;99.90;;;;;;5052833;28;20389;-74
2023/12/13 06:45:49;;;;;;;21.45;7.72;;;8.70;99.90;;;;;;5052709;28;20783;-74
2023/12/13 06:48:15;;;;;;;16.50;6.70;;;8.60;99.90;;;;;;5052909;28;20381;-74
2023/12/13 06:50:41;;;;;;;21.97;7.27;;;8.60;99.90;;;;;;5052904;28;20399;-74
2023/12/13 06:53:06;;;;;;;14.70;6.43;;;8.60;99.90;;;;;;5052675;28;20378;-74
2023/12/13 06:55:32;;;;;;;15.80;7.00;;;8.70;99.90;;;;;;5052791;28;20443;-74
2023/12/13 06:57:57;;;;;;;16.73;7.50;;;8.70;99.90;;;;;;5052701;28;20388;-74
2023/12/13 07:00:27;;;;;;;15.07;6.80;;;8.70;99.90;;;;;;5053589;28;20381;-72
2023/12/13 07:02:53;;;;;;;18.98;7.88;;;8.70;99.90;;;;;;5052693;28;20810;-74
2023/12/13 07:05:18;;;;;;;17.73;7.38;;;8.70;99.90;;;;;;5052560;28;20775;-74
2023/12/13 07:07:46;;;;;;;17.30;7.10;;;8.70;99.90;;;;;;5052165;28;20386;-74
2023/12/13 07:10:12;;;;;;;19.30;9.60;;;8.80;99.90;;;;;;5052286;28;20408;-73
2023/12/13 07:12:38;;;;;;;18.65;7.20;;;8.90;99.90;;;;;;5052104;28;20868;-73
2023/12/13 07:15:06;;;;;;;13.38;7.20;;;8.90;99.90;;;;;;5052636;28;20870;-74
2023/12/13 07:17:31;;;;;;;18.77;6.85;;;9.00;99.90;;;;;;5052667;28;20444;-75
2023/12/13 07:19:57;;;;;;;15.67;6.70;;;8.90;99.90;;;;;;5052466;28;20469;-74
2023/12/13 07:22:22;;;;;;;15.98;6.60;;;8.90;99.90;;;;;;5052302;28;20401;-75
2023/12/13 07:24:48;;;;;;;16.95;7.00;;;9.10;99.90;;;;;;5052200;28;20405;-75
2023/12/13 07:27:13;;;;;;;11.40;6.78;;;9.00;99.90;;;;;;5052083;28;20393;-74
2023/12/13 07:29:42;;;;;;;15.73;6.50;;;9.00;99.90;;;;;;5052064;28;20825;-75
2023/12/13 07:32:09;;;;;;;21.63;8.30;;;8.90;99.90;;;;;;5052100;28;20511;-74
2023/12/13 07:34:36;;;;;;;18.50;6.77;;;8.80;99.90;;;;;;5051922;28;20389;-74
2023/12/13 07:37:02;;;;;;;14.93;6.90;;;8.90;99.90;;;;;;5052200;28;20884;-74
2023/12/13 07:39:30;;;;;;;21.57;7.20;;;8.90;99.90;;;;;;5051835;28;20480;-74
2023/12/13 07:41:56;;;;;;;27.63;8.73;;;8.80;99.90;;;;;;5051487;28;20440;-74
2023/12/13 07:44:22;;;;;;;16.80;6.77;;;8.80;99.90;;;;;;5051343;28;20381;-74
2023/12/13 07:46:47;;;;;;;14.60;6.90;;;8.90;99.90;;;;;;5051539;28;20791;-74
2023/12/13 07:49:13;;;;;;;17.50;7.50;;;8.80;99.90;;;;;;5051421;28;20397;-74
2023/12/13 07:51:39;;;;;;;22.10;6.77;;;8.80;99.90;;;;;;5051650;28;20428;-75
2023/12/13 07:54:04;;;;;;;19.77;7.50;;;8.70;99.90;;;;;;5050784;28;20791;-74
2023/12/13 07:56:30;;;;;;;15.60;6.77;;;8.70;99.90;;;;;;5033609;28;20470;-74
2023/12/13 07:58:56;;;;;;;18.60;8.18;;;8.60;99.90;;;;;;5051186;28;20381;-74
2023/12/13 08:01:22;;;;;;;21.48;7.20;;;8.60;99.90;;;;;;5051511;28;20381;-74
2023/12/13 08:03:48;;;;;;;20.92;6.88;;;8.70;99.90;;;;;;5033077;28;20851;-75
2023/12/13 08:06:15;;;;;;;15.90;6.68;;;8.70;99.90;;;;;;5051475;28;20520;-75
2023/12/13 08:08:41;;;;;;;16.00;6.83;;;8.80;99.90;;;;;;5051731;28;20454;-74
2023/12/13 08:11:08;;;;;;;17.10;7.80;;;8.80;99.90;;;;;;5032942;28;20488;-74
2023/12/13 08:13:34;;;;;;;22.83;8.35;;;8.80;99.90;;;;;;5050969;28;20456;-75
2023/12/13 08:16:00;;;;;;;16.45;6.95;;;8.80;99.90;;;;;;5051050;28;20886;-73
2023/12/13 08:18:26;;;;;;;22.70;7.80;;;8.90;99.90;;;;;;5051151;28;20393;-74
2023/12/13 08:20:52;;;;;;;22.75;7.55;;;8.90;99.90;;;;;;5050890;28;20756;-73
2023/12/13 08:23:17;;;;;;;24.27;7.50;;;8.90;99.90;;;;;;5093096;22;20428;-75
2023/12/13 08:25:43;;;;;;;17.43;7.50;;;8.90;99.90;;;;;;5112068;28;20707;-74
2023/12/13 08:28:09;;;;;;;20.10;8.00;;;8.90;99.90;;;;;;5111832;28;20464;-74
2023/12/13 08:30:35;;;;;;;18.63;7.30;;;8.90;99.90;;;;;;5111360;28;20485;-74
2023/12/13 08:33:01;;;;;;;16.88;7.30;;;9.00;99.90;;;;;;5111470;28;20422;-75
2023/12/13 08:35:27;;;;;;;17.07;6.60;;;8.90;99.90;;;;;;5111776;28;20376;-75
2023/12/13 08:37:53;;;;;;;19.73;7.20;;;8.90;99.90;;;;;;5111787;28;20941;-74
2023/12/13 08:40:19;;;;;;;22.38;7.15;;;9.00;99.90;;;;;;5112420;28;20384;-74
2023/12/13 08:42:44;;;;;;;19.83;7.75;;;9.00;99.90;;;;;;5111405;28;20847;-73
2023/12/13 08:45:10;;;;;;;13.63;6.18;;;8.90;99.90;;;;;;5111750;28;20484;-75
2023/12/13 08:47:36;;;;;;;17.05;6.80;;;8.90;99.90;;;;;;5111671;28;20876;-75
2023/12/13 08:50:03;;;;;;;18.02;6.55;;;9.00;99.90;;;;;;5111523;28;20377;-75
2023/12/13 08:52:29;;;;;;;17.55;6.95;;;9.10;99.90;;;;;;5112052;28;20384;-75
2023/12/13 08:54:55;;;;;;;20.10;7.70;;;9.10;99.90;;;;;;5111547;28;20391;-74
2023/12/13 08:57:20;;;;;;;19.33;7.57;;;9.00;99.90;;;;;;5111289;28;20725;-74
2023/12/13 08:59:46;;;;;;;14.60;6.20;;;9.10;99.90;;;;;;5111393;28;20394;-75
2023/12/13 09:02:12;;;;;;;16.58;6.63;;;9.20;99.90;;;;;;5111378;28;20388;-75
2023/12/13 09:04:37;;;;;;;19.15;6.90;;;9.30;99.50;;;;;;5110773;28;20427;-74
2023/12/13 09:07:03;;;;;;;16.98;6.60;;;9.30;99.90;;;;;;5110896;28;20407;-75
2023/12/13 09:09:31;;;;;;;20.73;6.70;;;9.50;97.30;;;;;;5112066;28;20433;-75
2023/12/13 09:11:57;;;;;;;19.55;6.60;;;9.50;95.10;;;;;;5111194;28;20934;-74
2023/12/13 09:14:23;;;;;;;20.00;7.10;;;9.50;95.80;;;;;;5111018;28;20395;-75
2023/12/13 09:16:48;;;;;;;13.25;6.80;;;9.60;93.00;;;;;;5111232;28;20376;-74
2023/12/13 09:19:14;;;;;;;16.57;6.60;;;9.60;93.70;;;;;;5110929;28;20424;-75
2023/12/13 09:21:40;;;;;;;20.33;6.22;;;9.40;95.40;;;;;;5112234;28;20531;-75
2023/12/13 09:24:07;;;;;;;16.40;6.90;;;9.60;93.30;;;;;;5111976;28;20479;-74
2023/12/13 09:26:35;;;;;;;15.37;6.50;;;9.70;89.60;;;;;;5111562;28;20404;-74
2023/12/13 09:29:01;;;;;;;13.98;5.57;;;9.90;86.60;;;;;;5110946;28;20372;-76
2023/12/13 09:31:27;;;;;;;16.33;5.38;;;10.10;81.80;;;;;;5111376;28;20850;-74
2023/12/13 09:33:52;;;;;;;15.32;5.50;;;10.10;80.30;;;;;;5111134;28;20403;-76
2023/12/13 09:36:19;;;;;;;16.00;5.47;;;10.10;78.90;;;;;;5111273;28;20384;-74
2023/12/13 09:38:45;;;;;;;9.90;4.00;;;10.00;78.50;;;;;;5110919;28;20384;-75
2023/12/13 09:41:18;;;;;;;14.10;5.20;;;10.00;76.20;;;;;;5111733;28;20792;-75
2023/12/13 09:43:44;;;;;;;14.35;5.40;;;9.80;79.10;;;;;;5113039;28;20471;-74
2023/12/13 09:46:13;;;;;;;17.30;4.85;;;9.90;79.00;;;;;;5127965;28;20766;-75
2023/12/13 09:48:40;;;;;;;13.18;4.60;;;10.10;77.10;;;;;;5128926;28;20391;-75
2023/12/13 09:51:09;;;;;;;14.70;4.90;;;10.10;77.10;;;;;;5095526;28;20751;-74
2023/12/13 09:53:38;;;;;;;12.25;4.85;;;10.30;76.30;;;;;;5110764;28;20376;-75
2023/12/13 09:56:04;;;;;;;17.95;5.30;;;10.20;77.00;;;;;;5110781;28;20410;-75
2023/12/13 09:58:30;;;;;;;12.70;4.30;;;10.10;77.00;;;;;;5110464;28;20468;-75
2023/12/13 10:00:56;;;;;;;15.43;4.47;;;10.20;77.70;;;;;;5110610;28;20383;-74
2023/12/13 10:03:22;;;;;;;19.50;5.50;;;10.20;77.40;;;;;;5110559;28;20471;-73
2023/12/13 10:05:48;;;;;;;16.58;4.85;;;10.30;76.30;;;;;;5110666;28;20395;-74
2023/12/13 10:08:15;;;;;;;11.80;4.10;;;10.40;73.50;;;;;;5111222;28;20893;-75
2023/12/13 10:10:42;;;;;;;13.98;5.30;;;10.30;76.50;;;;;;5110976;28;20424;-73
2023/12/13 10:13:10;;;;;;;15.57;5.00;;;10.30;77.00;;;;;;5110805;28;20731;-75
2023/12/13 10:15:36;;;;;;;13.73;4.82;;;10.40;77.60;;;;;;5111077;28;20456;-74
2023/12/13 10:18:01;;;;;;;18.13;5.00;;;10.60;73.00;;;;;;5114577;28;20376;-76
2023/12/13 10:20:30;;;;;;;15.32;5.53;;;10.80;70.40;;;;;;5114977;28;20384;-74
2023/12/13 10:22:56;;;;;;;15.82;4.30;;;10.70;72.20;;;;;;5114358;28;20408;-74
2023/12/13 10:25:23;;;;;;;15.18;4.95;;;10.50;72.70;;;;;;5096060;28;20743;-73
2023/12/13 10:27:50;;;;;;;17.60;4.93;;;10.70;71.20;;;;;;5114355;28;20471;-76
2023/12/13 10:30:18;;;;;;;15.35;4.68;;;10.70;72.80;;;;;;5114212;28;20415;-75
2023/12/13 10:32:43;;;;;;;13.68;5.40;;;10.70;73.10;;;;;;5113943;28;20420;-74
2023/12/13 10:35:09;;;;;;;16.63;5.30;;;10.70;72.80;;;;;;5114360;28;20383;-75
2023/12/13 10:37:35;;;;;;;12.30;4.45;;;10.60;71.50;;;;;;5114392;28;20874;-75
2023/12/13 10:40:03;;;;;;;14.63;5.18;;;10.70;69.90;;;;;;5114266;28;20398;-74
2023/12/13 10:42:29;;;;;;;9.65;4.35;;;10.80;70.50;;;;;;5114783;28;20389;-74
2023/12/13 10:44:55;;;;;;;16.27;4.80;;;10.80;70.30;;;;;;5114436;28;20406;-75
2023/12/13 10:47:25;;;;;;;20.58;5.90;;;10.70;71.50;;;;;;5114388;28;20436;-74
2023/12/13 10:49:58;;;;;;;18.40;4.60;;;10.60;71.80;;;;;;5113821;28;20383;-73
2023/12/13 10:52:26;;;;;;;10.90;4.57;;;10.60;72.50;;;;;;5114102;28;20829;-75
2023/12/13 10:54:52;;;;;;;16.35;4.97;;;10.50;73.40;;;;;;5113714;28;20407;-74
2023/12/13 10:57:18;;;;;;;15.75;4.90;;;10.40;72.30;;;;;;5113639;28;20892;-74
2023/12/13 10:59:45;;;;;;;15.80;6.00;;;10.40;74.30;;;;;;5113516;28;20470;-76
2023/12/13 11:02:15;;;;;;;12.00;4.73;;;10.40;74.60;;;;;;5113623;28;20435;-74
2023/12/13 11:04:43;;;;;;;14.50;4.53;;;10.40;74.20;;;;;;5113418;28;20419;-74
2023/12/13 11:07:09;;;;;;;17.73;4.90;;;10.30;76.00;;;;;;5113518;28;20415;-75
2023/12/13 11:09:35;;;;;;;19.00;4.63;;;10.30;77.10;;;;;;5113207;28;20456;-75
2023/12/13 11:12:10;;;;;;;11.02;4.15;;;10.30;75.20;;;;;;5113914;28;20842;-75
2023/12/13 11:14:40;;;;;;;7.40;2.97;;;10.50;70.60;;;;;;5113316;28;20433;-75
2023/12/13 11:17:06;;;;;;;11.32;3.20;;;10.70;64.40;;;;;;5113493;28;20406;-74
2023/12/13 11:19:32;;;;;;;3.92;1.83;;;10.50;67.70;;;;;;5113060;28;20417;-73
2023/12/13 11:21:57;;;;;;;4.63;1.30;;;10.40;67.60;;;;;;5113053;28;20384;-74
2023/12/13 11:24:26;;;;;;;3.50;1.20;;;10.30;67.70;;;;;;5112741;28;20412;-74
2023/12/13 11:26:53;;;;;;;4.20;2.03;;;10.00;70.30;;;;;;5094584;28;20377;-74
2023/12/13 11:29:33;;;;;;;6.13;1.50;;;10.20;71.50;;;;;;5112353;28;20392;-75
2023/12/13 11:32:01;;;;;;;2.80;1.20;;;10.10;71.60;;;;;;5113261;28;20402;-74
2023/12/13 11:34:48;;;;;;;1.58;1.02;;;10.00;72.60;;;;;;5112879;28;20384;-75
2023/12/13 11:37:14;;;;;;;1.67;1.20;;;9.90;74.90;;;;;;5112972;28;20434;-75
2023/12/13 11:39:42;;;;;;;4.03;1.70;;;9.80;76.70;;;;;;5113014;28;20395;-75
2023/12/13 11:42:09;;;;;;;5.35;1.40;;;9.90;74.90;;;;;;5112442;28;20407;-75
2023/12/13 11:44:36;;;;;;;5.03;3.50;;;10.20;74.50;;;;;;5112715;28;20380;-75
2023/12/13 11:47:10;;;;;;;3.70;1.50;;;10.20;72.40;;;;;;5112650;28;20384;-75
2023/12/13 11:49:37;;;;;;;2.50;1.40;;;10.00;77.60;;;;;;5113243;28;20377;-76
2023/12/13 11:52:03;;;;;;;3.60;1.67;;;9.80;82.90;;;;;;5112533;28;20380;-76
2023/12/13 11:54:29;;;;;;;3.47;1.80;;;9.80;89.60;;;;;;5112754;28;20376;-75
2023/12/13 11:56:54;;;;;;;2.10;1.40;;;9.70;88.30;;;;;;5113033;28;20376;-74
2023/12/13 11:59:20;;;;;;;5.80;2.10;;;9.90;89.40;;;;;;5112403;28;20372;-75
2023/12/13 12:01:46;;;;;;;3.30;1.70;;;9.80;91.20;;;;;;5112443;28;20379;-75
2023/12/13 12:04:13;;;;;;;9.20;1.90;;;9.90;92.40;;;;;;5112540;28;20377;-75
2023/12/13 12:06:46;;;;;;;4.75;1.90;;;10.30;89.10;;;;;;5112605;28;20425;-76
2023/12/13 12:09:11;;;;;;;5.13;1.80;;;10.70;82.70;;;;;;5112084;28;20380;-74
2023/12/13 12:11:37;;;;;;;4.87;2.10;;;10.80;79.10;;;;;;5112189;28;20490;-75
2023/12/13 12:14:10;;;;;;;5.15;2.00;;;10.80;79.50;;;;;;5112587;28;20799;-74
2023/12/13 12:16:37;;;;;;;7.88;2.25;;;11.00;77.00;;;;;;5112223;28;20411;-74
2023/12/13 12:19:04;;;;;;;6.40;2.70;;;10.90;77.20;;;;;;5112447;28;20897;-76
2023/12/13 12:21:32;;;;;;;7.28;2.40;;;11.00;77.40;;;;;;5113220;28;20793;-74
2023/12/13 12:23:58;;;;;;;7.05;3.53;;;11.10;75.90;;;;;;5112300;28;20889;-75
2023/12/13 12:26:24;;;;;;;5.88;2.65;;;11.10;75.20;;;;;;5115754;28;20400;-74
2023/12/13 12:28:50;;;;;;;3.50;2.50;;;11.00;74.60;;;;;;5117581;28;20878;-75
2023/12/13 12:31:15;;;;;;;13.87;7.33;;;11.10;74.40;;;;;;5123114;28;20384;-74
2023/12/13 12:33:41;;;;;;;14.63;7.70;;;11.30;71.40;;;;;;5124165;28;20395;-74
2023/12/13 12:36:07;;;;;;;11.93;6.53;;;11.30;71.50;;;;;;5100020;28;20389;-74
2023/12/13 12:38:33;;;;;;;10.07;3.78;;;11.40;67.70;;;;;;5114095;28;20384;-75
2023/12/13 12:40:59;;;;;;;7.80;2.78;;;11.40;67.80;;;;;;5114036;28;20882;-74
2023/12/13 12:43:24;;;;;;;9.10;4.28;;;11.60;66.70;;;;;;5112454;28;20390;-75